Time;durP1;ratioP1;P1;durP2;ratioP2;P2;SDS_P1;SDS_P2;PMS_P1;PMS_P2;Temp;Humidity;BMP_temperature;BMP_pressure;BME280_temperature;BME280_humidity;BME280_pressure;Samples;Min_cycle;Max_cycle;Signal;HPM_P1;HPM_P2
2021/01/02 00:01:20;;;;;;;0.40;0.40;;;;;;;6.76;77.93;100631.94;5022123;28;20050;-60
2021/01/02 00:03:59;;;;;;;6.05;1.35;;;;;;;6.74;78.19;100637.22;5029021;28;20087;-60
2021/01/02 00:06:31;;;;;;;1.40;0.40;;;;;;;6.75;78.12;100638.06;5029043;28;20047;-60
2021/01/02 00:09:05;;;;;;;0.90;0.80;;;;;;;6.73;78.03;100630.31;5002175;28;20060;-59
2021/01/02 00:12:02;;;;;;;0.47;0.25;;;;;;;6.75;78.27;100630.25;5029248;28;20524;-60
2021/01/02 00:14:50;;;;;;;1.00;0.45;;;;;;;6.75;78.13;100627.63;5009481;28;20080;-60
2021/01/02 00:17:30;;;;;;;0.50;0.40;;;;;;;6.76;78.24;100632.78;5028432;28;20045;-60
2021/01/02 00:20:07;;;;;;;0.75;0.52;;;;;;;6.76;78.28;100630.19;5028695;28;20068;-60
2021/01/02 00:22:42;;;;;;;1.95;0.43;;;;;;;6.77;78.40;100616.22;5001927;28;20049;-60
2021/01/02 00:25:12;;;;;;;0.65;0.30;;;;;;;6.77;78.46;100629.28;5029041;28;20502;-60
2021/01/02 00:27:50;;;;;;;0.98;0.60;;;;;;;6.78;78.37;100614.47;5028995;28;20490;-60
2021/01/02 00:30:27;;;;;;;1.52;1.10;;;;;;;6.79;78.47;100608.34;5029011;28;20053;-60
2021/01/02 00:33:00;;;;;;;0.85;0.50;;;;;;;6.81;78.38;100603.91;5029007;28;20045;-59
2021/01/02 00:35:28;;;;;;;0.68;0.68;;;;;;;6.81;78.44;100594.31;5028851;28;20560;-60
2021/01/02 00:38:08;;;;;;;1.40;0.50;;;;;;;6.82;78.51;100596.00;5028574;28;20041;-59
2021/01/02 00:40:38;;;;;;;1.08;0.50;;;;;;;6.82;78.37;100590.78;5028894;28;20049;-59
2021/01/02 00:43:04;;;;;;;1.38;0.57;;;;;;;6.83;78.51;100600.31;5028828;28;20213;-60
2021/01/02 00:45:32;;;;;;;0.65;0.50;;;;;;;6.83;78.41;100597.72;5029237;28;20473;-59
2021/01/02 00:48:01;;;;;;;2.55;0.70;;;;;;;6.84;78.63;100590.72;5028584;28;20474;-60
2021/01/02 00:50:27;;;;;;;1.13;0.68;;;;;;;6.85;78.60;100593.25;5028718;28;20053;-60
2021/01/02 00:53:03;;;;;;;2.30;0.50;;;;;;;6.86;78.54;100591.53;5027982;28;20087;-60
2021/01/02 00:55:49;;;;;;;0.52;0.43;;;;;;;6.85;78.54;100593.25;5028832;28;20604;-60
2021/01/02 00:58:38;;;;;;;0.30;0.30;;;;;;;6.85;78.68;100585.44;5001877;28;20414;-59
2021/01/02 01:01:06;;;;;;;0.40;0.40;;;;;;;6.87;78.73;100577.56;5028305;28;20046;-60
2021/01/02 01:03:57;;;;;;;0.77;0.30;;;;;;;6.89;78.45;100587.94;5028542;28;20064;-60
2021/01/02 01:06:25;;;;;;;0.90;0.30;;;;;;;6.88;78.38;100587.06;5028366;28;20050;-61
2021/01/02 01:08:53;;;;;;;3.08;0.80;;;;;;;6.88;78.65;100583.63;5028331;28;20050;-60
2021/01/02 01:11:22;;;;;;;0.85;0.52;;;;;;;6.90;78.37;100593.06;5028827;28;20052;-60
2021/01/02 01:13:54;;;;;;;0.38;0.35;;;;;;;6.90;78.54;100587.84;5028309;28;20053;-60
2021/01/02 01:16:22;;;;;;;0.43;0.40;;;;;;;6.90;78.60;100598.28;5028512;28;20046;-60
2021/01/02 01:19:05;;;;;;;1.80;0.40;;;;;;;6.91;78.58;100601.72;5028347;28;20041;-60
2021/01/02 01:21:44;;;;;;;0.93;0.40;;;;;;;6.91;78.42;100607.81;5027676;28;20524;-60
2021/01/02 01:24:15;;;;;;;0.52;0.30;;;;;;;6.92;78.45;100608.66;5028492;28;20042;-60
2021/01/02 01:26:59;;;;;;;1.17;0.50;;;;;;;6.93;78.45;100599.91;5028199;28;20049;-60
2021/01/02 01:29:40;;;;;;;0.70;0.40;;;;;;;6.93;78.33;100599.91;5006691;28;20053;-59
2021/01/02 01:32:07;;;;;;;0.75;0.30;;;;;;;6.92;78.19;100596.47;5029934;28;20041;-60
2021/01/02 01:34:34;;;;;;;1.27;0.40;;;;;;;6.93;78.46;100598.16;5028046;28;20041;-60
2021/01/02 01:37:08;;;;;;;0.80;0.40;;;;;;;6.94;78.24;100597.22;5032059;28;20045;-60
2021/01/02 01:39:37;;;;;;;0.45;0.30;;;;;;;6.94;78.00;100592.00;5032673;28;20088;-59
2021/01/02 01:42:06;;;;;;;0.68;0.40;;;;;;;6.95;78.18;100593.72;5033685;28;20045;-60
2021/01/02 01:44:44;;;;;;;0.65;0.40;;;;;;;6.94;78.21;100584.19;5033241;28;20571;-59
2021/01/02 01:47:13;;;;;;;0.73;0.43;;;;;;;6.94;78.19;100592.00;5034367;28;20509;-60
2021/01/02 01:49:57;;;;;;;0.43;0.30;;;;;;;6.96;78.23;100597.19;5031955;28;20068;-59
2021/01/02 01:52:36;;;;;;;1.48;0.30;;;;;;;6.96;77.97;100597.19;5032112;28;20104;-60
2021/01/02 01:55:08;;;;;;;0.93;0.40;;;;;;;6.96;78.06;100600.63;5027595;28;20041;-60
2021/01/02 01:57:40;;;;;;;1.13;0.40;;;;;;;6.97;78.00;100602.34;5032550;28;20099;-60
2021/01/02 02:00:10;;;;;;;1.50;0.50;;;;;;;6.98;77.94;100597.94;5029307;28;20049;-59
2021/01/02 02:02:40;;;;;;;1.02;0.40;;;;;;;6.98;78.02;100591.00;5032786;28;20145;-59
2021/01/02 02:05:08;;;;;;;1.05;0.50;;;;;;;6.99;78.03;100600.47;5031119;28;20056;-60
2021/01/02 02:08:10;;;;;;;1.02;0.60;;;;;;;6.99;77.80;100587.44;5033375;28;20041;-60
2021/01/02 02:10:47;;;;;;;2.00;0.55;;;;;;;7.01;78.04;100595.22;5032386;28;20038;-61
2021/01/02 02:13:20;;;;;;;1.00;0.50;;;;;;;7.00;77.95;100591.75;5021553;28;20076;-60
2021/01/02 02:15:49;;;;;;;0.40;0.40;;;;;;;7.01;77.81;100592.63;5014844;28;20052;-61
2021/01/02 02:18:23;;;;;;;1.17;0.25;;;;;;;7.02;78.01;100594.28;5014581;28;20049;-61
2021/01/02 02:20:53;;;;;;;0.77;0.50;;;;;;;7.03;77.82;100591.63;5018539;28;20050;-63
2021/01/02 02:23:27;;;;;;;1.10;0.40;;;;;;;7.05;77.92;100590.69;5028329;28;20045;-61
2021/01/02 02:26:07;;;;;;;1.17;0.30;;;;;;;7.06;77.77;100592.38;5033141;28;20037;-61
2021/01/02 02:28:57;;;;;;;1.77;0.50;;;;;;;7.08;77.96;100595.78;5031273;28;20041;-61
2021/01/02 02:31:24;;;;;;;1.15;0.50;;;;;;;7.07;77.99;100587.09;5028345;28;20045;-61
2021/01/02 02:33:58;;;;;;;2.63;1.25;;;;;;;7.08;78.07;100582.75;5030619;28;20041;-61
2021/01/02 02:36:28;;;;;;;0.95;0.50;;;;;;;7.09;77.97;100587.06;5029324;28;20053;-61
2021/01/02 02:38:56;;;;;;;0.80;0.40;;;;;;;7.11;77.93;100585.19;5030556;28;20052;-60
2021/01/02 02:41:29;;;;;;;1.98;0.60;;;;;;;7.12;77.65;100579.06;5033294;28;20402;-61
2021/01/02 02:43:59;;;;;;;0.90;0.57;;;;;;;7.14;77.67;100579.88;5032919;28;20056;-61
2021/01/02 02:46:28;;;;;;;1.90;0.50;;;;;;;7.13;77.51;100575.56;5029801;28;20045;-61
2021/01/02 02:48:59;;;;;;;0.82;0.50;;;;;;;7.15;77.58;100574.56;5031210;28;20104;-60
2021/01/02 02:51:30;;;;;;;1.08;0.50;;;;;;;7.17;77.47;100570.13;5026412;28;20049;-61
2021/01/02 02:53:56;;;;;;;0.82;0.38;;;;;;;7.18;77.42;100570.97;5013959;28;20491;-60
2021/01/02 02:56:22;;;;;;;0.57;0.50;;;;;;;7.19;77.28;100570.06;5017210;28;20552;-61
2021/01/02 02:58:49;;;;;;;0.63;0.40;;;;;;;7.21;77.22;100564.75;5023121;28;20054;-60
2021/01/02 03:01:15;;;;;;;1.20;0.40;;;;;;;7.22;77.30;100562.06;5027048;28;20050;-61
2021/01/02 03:03:41;;;;;;;1.13;0.40;;;;;;;7.22;77.09;100571.69;5033882;28;20115;-60
2021/01/02 03:06:08;;;;;;;1.00;0.38;;;;;;;7.23;76.93;100565.56;5034082;28;20052;-61
2021/01/02 03:08:35;;;;;;;0.70;0.20;;;;;;;7.24;77.14;100562.88;5033647;28;20041;-61
2021/01/02 03:11:02;;;;;;;1.52;0.20;;;;;;;7.24;76.84;100551.56;5033984;28;20041;-60
2021/01/02 03:13:40;;;;;;;2.47;0.63;;;;;;;7.25;76.96;100553.25;5033917;28;20080;-61
2021/01/02 03:16:06;;;;;;;1.20;0.22;;;;;;;7.24;76.96;100544.59;5033939;28;20045;-60
2021/01/02 03:18:33;;;;;;;0.82;0.28;;;;;;;7.25;76.88;100550.66;5033829;28;20042;-60
2021/01/02 03:20:59;;;;;;;0.17;0.13;;;;;;;7.23;76.79;100553.34;5033478;28;20049;-60
2021/01/02 03:23:25;;;;;;;0.40;0.20;;;;;;;7.23;76.56;100544.69;5027474;28;20053;-61
2021/01/02 03:25:52;;;;;;;0.52;0.32;;;;;;;7.23;76.77;100550.72;5019518;28;20038;-61
2021/01/02 03:28:18;;;;;;;0.43;0.35;;;;;;;7.21;76.88;100539.50;5029667;28;20076;-61
2021/01/02 03:30:44;;;;;;;0.88;0.32;;;;;;;7.21;76.51;100539.50;5023519;28;20088;-60
2021/01/02 03:33:10;;;;;;;1.15;0.30;;;;;;;7.21;76.40;100528.22;5033728;28;20044;-60
2021/01/02 03:35:37;;;;;;;0.38;0.28;;;;;;;7.21;76.32;100523.84;5033200;28;20056;-64
2021/01/02 03:38:03;;;;;;;1.42;0.30;;;;;;;7.20;76.25;100514.34;5033514;28;20434;-60
2021/01/02 03:40:29;;;;;;;0.47;0.30;;;;;;;7.21;76.16;100509.97;5033307;28;20042;-59
2021/01/02 03:42:55;;;;;;;2.90;1.48;;;;;;;7.21;76.04;100508.19;5030781;28;20075;-59
2021/01/02 03:45:22;;;;;;;2.72;0.43;;;;;;;7.21;76.07;100505.56;5033268;28;20564;-61
2021/01/02 03:47:48;;;;;;;1.45;0.30;;;;;;;7.22;75.88;100501.22;5033027;28;20045;-61
2021/01/02 03:50:15;;;;;;;0.68;0.40;;;;;;;7.22;75.84;100496.00;5033088;28;20068;-61
2021/01/02 03:52:42;;;;;;;1.48;0.30;;;;;;;7.21;75.69;100487.31;5032678;28;20514;-60
2021/01/02 03:55:10;;;;;;;2.10;0.40;;;;;;;7.21;75.67;100483.88;5033001;28;20052;-60
2021/01/02 03:57:37;;;;;;;0.30;0.30;;;;;;;7.21;75.58;100482.09;5032772;28;20132;-60
2021/01/02 04:00:07;;;;;;;1.05;0.40;;;;;;;7.21;75.68;100484.69;5019988;28;20045;-62
2021/01/02 04:02:33;;;;;;;1.42;0.40;;;;;;;7.22;75.54;100496.84;5013676;28;20045;-60
2021/01/02 04:05:01;;;;;;;0.68;0.40;;;;;;;7.23;75.45;100495.94;5009773;28;20044;-60
2021/01/02 04:07:29;;;;;;;0.55;0.30;;;;;;;7.25;75.14;100494.09;5009107;28;20100;-62
2021/01/02 04:09:55;;;;;;;3.92;0.63;;;;;;;7.26;75.10;100485.34;5009150;28;20119;-63
2021/01/02 04:12:22;;;;;;;0.88;0.30;;;;;;;7.27;74.93;100492.25;5009923;28;20050;-62
2021/01/02 04:14:48;;;;;;;1.45;1.35;;;;;;;7.28;75.07;100488.72;5009264;28;20647;-62
2021/01/02 04:17:14;;;;;;;1.70;0.50;;;;;;;7.28;75.02;100478.28;5009654;28;20045;-60
2021/01/02 04:19:40;;;;;;;0.68;0.40;;;;;;;7.30;75.08;100483.41;5008920;28;20060;-61
2021/01/02 04:22:07;;;;;;;2.00;0.40;;;;;;;7.32;75.00;100487.66;5009817;28;20406;-61
2021/01/02 04:24:33;;;;;;;0.63;0.40;;;;;;;7.31;75.07;100478.16;5009255;28;20490;-60
2021/01/02 04:27:00;;;;;;;0.43;0.40;;;;;;;7.32;74.88;100482.44;5009220;28;20050;-60
2021/01/02 04:29:28;;;;;;;1.17;0.45;;;;;;;7.33;75.27;100488.53;5009488;28;20100;-61
2021/01/02 04:31:55;;;;;;;1.65;1.27;;;;;;;7.34;74.97;100488.44;5009183;28;20038;-61
2021/01/02 04:34:23;;;;;;;0.88;0.45;;;;;;;7.36;75.03;100493.56;5009652;28;20041;-61
2021/01/02 04:36:49;;;;;;;0.70;0.70;;;;;;;7.38;75.07;100503.94;5009350;28;20046;-61
2021/01/02 04:39:16;;;;;;;0.43;0.30;;;;;;;7.39;74.83;100503.91;5009071;28;20453;-60
2021/01/02 04:41:42;;;;;;;0.98;0.30;;;;;;;7.40;75.05;100504.72;5008854;28;20046;-61
2021/01/02 04:44:08;;;;;;;0.25;0.20;;;;;;;7.41;75.01;100502.03;5009148;28;20050;-60
2021/01/02 04:46:37;;;;;;;0.80;0.30;;;;;;;7.41;74.95;100499.44;5009336;28;20049;-60
2021/01/02 04:49:05;;;;;;;2.33;0.50;;;;;;;7.44;75.18;100503.66;5009113;28;20121;-60
2021/01/02 04:51:31;;;;;;;2.20;0.43;;;;;;;7.43;75.16;100500.22;5009179;28;20050;-61
2021/01/02 04:54:05;;;;;;;0.80;0.43;;;;;;;7.44;75.32;100514.97;5008848;28;20042;-63
2021/01/02 04:56:33;;;;;;;1.42;0.28;;;;;;;7.42;75.44;100524.63;5009160;28;20494;-60
2021/01/02 04:59:02;;;;;;;1.00;0.20;;;;;;;7.44;75.51;100540.19;5009158;28;20050;-61
2021/01/02 05:01:29;;;;;;;1.55;0.35;;;;;;;7.43;75.85;100536.75;5023669;28;20053;-61
2021/01/02 05:03:55;;;;;;;0.25;0.20;;;;;;;7.42;76.12;100531.63;5032105;28;20045;-61
2021/01/02 05:06:22;;;;;;;0.50;0.30;;;;;;;7.43;76.26;100530.69;5033063;28;20049;-61
2021/01/02 05:08:52;;;;;;;0.85;0.40;;;;;;;7.40;76.21;100523.84;5032693;28;20155;-61
2021/01/02 05:11:19;;;;;;;1.33;0.40;;;;;;;7.38;76.44;100517.84;5033000;28;20057;-60
2021/01/02 05:13:46;;;;;;;2.08;0.50;;;;;;;7.37;76.84;100525.78;5032454;28;20462;-60
2021/01/02 05:16:23;;;;;;;1.35;0.40;;;;;;;7.38;76.88;100519.59;5032653;28;20043;-61
2021/01/02 05:18:53;;;;;;;0.73;0.35;;;;;;;7.36;77.30;100517.06;5032747;28;20049;-61
2021/01/02 05:21:19;;;;;;;1.88;0.30;;;;;;;7.35;77.39;100520.59;5032560;28;20410;-60
2021/01/02 05:24:04;;;;;;;1.25;0.30;;;;;;;7.34;77.51;100526.75;5032053;28;20093;-60
2021/01/02 05:26:32;;;;;;;0.95;0.40;;;;;;;7.35;77.79;100533.66;5032525;28;20049;-60
2021/01/02 05:29:30;;;;;;;2.13;0.65;;;;;;;7.33;78.08;100538.94;5032571;28;20049;-61
2021/01/02 05:31:58;;;;;;;3.25;1.60;;;;;;;7.31;78.46;100527.75;5032025;28;20046;-61
2021/01/02 05:34:27;;;;;;;1.38;0.90;;;;;;;7.30;78.48;100531.28;5004827;28;20100;-60
2021/01/02 05:37:02;;;;;;;1.08;0.57;;;;;;;7.30;78.74;100520.84;5032154;28;20111;-61
2021/01/02 05:39:34;;;;;;;0.50;0.40;;;;;;;7.30;79.02;100523.44;5032185;28;20060;-60
2021/01/02 05:42:01;;;;;;;0.60;0.50;;;;;;;7.29;79.08;100524.34;5032663;28;20050;-61
2021/01/02 05:44:32;;;;;;;2.08;0.50;;;;;;;7.28;79.25;100519.22;5032126;28;20049;-60
2021/01/02 05:46:58;;;;;;;3.45;0.70;;;;;;;7.27;79.35;100512.28;5032284;28;20050;-60
2021/01/02 05:49:39;;;;;;;4.03;0.70;;;;;;;7.28;79.44;100527.03;5031948;28;20478;-60
2021/01/02 05:52:10;;;;;;;2.85;0.70;;;;;;;7.26;79.58;100514.06;5032106;28;20084;-61
2021/01/02 05:54:58;;;;;;;1.75;0.50;;;;;;;7.25;79.69;100522.81;5031639;28;20046;-59
2021/01/02 05:57:29;;;;;;;1.67;0.70;;;;;;;7.25;79.79;100522.81;5031774;28;20041;-61
2021/01/02 05:59:57;;;;;;;1.65;0.80;;;;;;;7.26;80.03;100523.63;5018098;28;20037;-61
2021/01/02 06:02:29;;;;;;;1.42;0.57;;;;;;;7.25;80.34;100517.59;5031962;28;20049;-60
2021/01/02 06:05:03;;;;;;;3.08;0.43;;;;;;;7.25;80.41;100509.75;5031607;28;20049;-61
2021/01/02 06:07:31;;;;;;;1.95;0.65;;;;;;;7.25;80.50;100512.38;5031483;28;20060;-62
2021/01/02 06:09:58;;;;;;;2.05;0.52;;;;;;;7.26;80.49;100513.19;5031580;28;20129;-60
2021/01/02 06:12:28;;;;;;;1.60;0.57;;;;;;;7.26;80.51;100516.69;5031926;28;20077;-61
2021/01/02 06:14:56;;;;;;;1.58;0.80;;;;;;;7.26;80.62;100521.03;5031378;28;20402;-64
2021/01/02 06:17:30;;;;;;;2.40;0.80;;;;;;;7.26;80.68;100515.81;5031626;28;20041;-61
2021/01/02 06:19:58;;;;;;;1.45;0.70;;;;;;;7.26;80.88;100519.28;5031467;28;20061;-61
2021/01/02 06:22:31;;;;;;;1.42;0.52;;;;;;;7.27;80.81;100525.34;5031281;28;20049;-62
2021/01/02 06:24:58;;;;;;;1.10;0.60;;;;;;;7.28;81.02;100516.59;5031598;28;20052;-60
2021/01/02 06:27:25;;;;;;;4.78;1.02;;;;;;;7.29;80.82;100507.84;5031334;28;20053;-62
2021/01/02 06:29:54;;;;;;;3.00;0.75;;;;;;;7.29;80.91;100518.31;5031261;28;20060;-61
2021/01/02 06:32:22;;;;;;;4.50;0.80;;;;;;;7.29;81.18;100511.31;5031186;28;20038;-62
2021/01/02 06:35:08;;;;;;;1.60;0.70;;;;;;;7.32;81.14;100518.13;5031210;28;20497;-61
2021/01/02 06:37:47;;;;;;;2.25;0.80;;;;;;;7.32;81.15;100511.16;5030415;28;20042;-61
2021/01/02 06:40:26;;;;;;;0.82;0.50;;;;;;;7.32;81.04;100508.53;5031553;28;20056;-61
2021/01/02 06:42:56;;;;;;;2.30;0.68;;;;;;;7.33;81.14;100494.56;5031192;28;20052;-60
2021/01/02 06:45:37;;;;;;;2.30;0.70;;;;;;;7.34;81.08;100496.25;5031208;28;20042;-60
2021/01/02 06:48:15;;;;;;;0.90;0.60;;;;;;;7.34;81.07;100488.44;5017702;28;20037;-61
2021/01/02 06:50:52;;;;;;;2.15;0.70;;;;;;;7.36;81.15;100483.13;5030992;28;20055;-60
2021/01/02 06:53:22;;;;;;;2.10;0.70;;;;;;;7.35;81.14;100484.06;5006313;28;20412;-60
2021/01/02 06:56:02;;;;;;;0.77;0.40;;;;;;;7.37;81.15;100491.84;5030759;28;20056;-62
2021/01/02 06:58:49;;;;;;;1.10;0.47;;;;;;;7.38;81.31;100493.50;5030963;28;20132;-62
2021/01/02 07:01:15;;;;;;;2.28;0.57;;;;;;;7.39;81.24;100489.97;5030722;28;20049;-62
2021/01/02 07:03:42;;;;;;;1.20;0.57;;;;;;;7.39;81.19;100490.84;5030616;28;20364;-62
2021/01/02 07:06:21;;;;;;;2.97;0.73;;;;;;;7.41;81.22;100475.09;5030749;28;20053;-61
2021/01/02 07:08:47;;;;;;;4.72;1.33;;;;;;;7.40;81.35;100461.19;5030202;28;20061;-62
2021/01/02 07:11:33;;;;;;;4.88;1.10;;;;;;;7.41;81.21;100459.44;5030844;28;20152;-61
2021/01/02 07:14:14;;;;;;;2.80;1.13;;;;;;;7.41;81.44;100455.03;5030513;28;20046;-62
2021/01/02 07:17:01;;;;;;;3.92;1.58;;;;;;;7.42;81.49;100435.03;5030323;28;20076;-62
2021/01/02 07:19:27;;;;;;;1.50;0.70;;;;;;;7.42;81.52;100442.84;5008253;28;20133;-61
2021/01/02 07:22:11;;;;;;;3.72;0.77;;;;;;;7.41;81.28;100433.34;5030442;28;20450;-62
2021/01/02 07:24:42;;;;;;;2.67;0.60;;;;;;;7.43;81.25;100427.13;5029824;28;20383;-61
2021/01/02 07:27:13;;;;;;;3.33;0.60;;;;;;;7.44;81.23;100427.94;5029771;28;20049;-62
2021/01/02 07:29:53;;;;;;;1.83;0.80;;;;;;;7.45;81.18;100443.56;5030242;28;20050;-61
2021/01/02 07:32:24;;;;;;;2.38;1.05;;;;;;;7.46;81.12;100428.72;5030291;28;20049;-61
2021/01/02 07:35:16;;;;;;;2.00;0.70;;;;;;;7.47;81.03;100431.25;5030345;28;20053;-61
2021/01/02 07:37:44;;;;;;;4.65;0.63;;;;;;;7.49;80.92;100429.44;5029944;28;20044;-62
2021/01/02 07:40:13;;;;;;;2.03;0.70;;;;;;;7.50;80.86;100425.03;5029931;28;20045;-61
2021/01/02 07:42:55;;;;;;;2.15;0.65;;;;;;;7.51;80.83;100426.75;5029609;28;20049;-62
2021/01/02 07:45:25;;;;;;;2.42;1.13;;;;;;;7.52;80.81;100425.81;5030190;28;20095;-62
2021/01/02 07:47:59;;;;;;;3.50;0.55;;;;;;;7.52;80.49;100428.44;5029581;28;20041;-61
2021/01/02 07:50:27;;;;;;;1.83;0.75;;;;;;;7.53;80.38;100427.53;5029788;28;20060;-64
2021/01/02 07:52:59;;;;;;;2.40;0.70;;;;;;;7.55;80.23;100430.03;5029552;28;20041;-63
2021/01/02 07:55:26;;;;;;;3.85;1.23;;;;;;;7.56;80.04;100427.34;5029971;28;20103;-63
2021/01/02 07:57:53;;;;;;;2.88;0.85;;;;;;;7.56;79.86;100429.13;5029704;28;20045;-63
2021/01/02 08:00:22;;;;;;;3.63;0.80;;;;;;;7.57;79.73;100430.78;5029592;28;20049;-63
2021/01/02 08:02:48;;;;;;;2.13;0.50;;;;;;;7.58;79.51;100422.91;5029740;28;20050;-63
2021/01/02 08:05:20;;;;;;;3.10;1.00;;;;;;;7.59;79.36;100437.66;5029601;28;20045;-63
2021/01/02 08:07:58;;;;;;;1.83;0.52;;;;;;;7.60;79.48;100436.72;5029221;28;20490;-64
2021/01/02 08:10:26;;;;;;;2.53;0.50;;;;;;;7.61;79.13;100437.59;5029488;28;20482;-64
2021/01/02 08:13:00;;;;;;;2.30;0.70;;;;;;;7.63;79.02;100433.97;5029284;28;20465;-63
2021/01/02 08:15:35;;;;;;;2.67;0.90;;;;;;;7.64;78.87;100440.91;5029611;28;20124;-62
2021/01/02 08:18:09;;;;;;;2.95;0.90;;;;;;;7.66;78.77;100438.19;5029425;28;20045;-62
2021/01/02 08:20:39;;;;;;;1.70;0.70;;;;;;;7.68;78.48;100439.81;5029000;28;20049;-63
2021/01/02 08:23:13;;;;;;;3.15;0.90;;;;;;;7.70;78.35;100438.91;5029105;28;20041;-64
2021/01/02 08:25:40;;;;;;;2.35;0.70;;;;;;;7.72;78.24;100442.25;5029205;28;20065;-62
2021/01/02 08:28:07;;;;;;;3.05;0.77;;;;;;;7.75;78.02;100444.75;5029374;28;20050;-64
2021/01/02 08:30:33;;;;;;;2.83;1.33;;;;;;;7.78;77.92;100444.56;5029258;28;20049;-62
2021/01/02 08:33:01;;;;;;;4.15;0.98;;;;;;;7.81;77.83;100444.44;5028897;28;20046;-63
2021/01/02 08:35:34;;;;;;;4.13;1.23;;;;;;;7.85;77.63;100443.34;5029350;28;20049;-62
2021/01/02 08:38:12;;;;;;;2.42;0.77;;;;;;;7.87;77.54;100438.88;5028197;28;20048;-63
2021/01/02 08:40:49;;;;;;;4.28;0.80;;;;;;;7.89;77.29;100439.66;5028798;28;20517;-64
2021/01/02 08:43:26;;;;;;;2.78;0.60;;;;;;;7.91;76.65;100437.81;5029593;28;20970;-63
2021/01/02 08:46:03;;;;;;;3.33;0.98;;;;;;;7.94;76.53;100428.97;5028787;28;20516;-62
2021/01/02 08:48:30;;;;;;;1.83;0.70;;;;;;;7.96;76.26;100434.97;5028724;28;20128;-63
2021/01/02 08:50:57;;;;;;;3.95;1.15;;;;;;;7.99;76.36;100440.88;5028848;28;20184;-63
2021/01/02 08:53:28;;;;;;;3.03;0.60;;;;;;;8.00;76.15;100434.72;5028691;28;20057;-62
2021/01/02 08:55:55;;;;;;;1.40;0.60;;;;;;;8.03;75.39;100443.34;5028730;28;20049;-62
2021/01/02 08:58:34;;;;;;;1.83;0.65;;;;;;;8.04;75.73;100437.19;5028880;28;20394;-62
2021/01/02 09:01:02;;;;;;;3.42;1.23;;;;;;;8.04;75.48;100437.19;5028917;28;20049;-63
2021/01/02 09:03:29;;;;;;;1.23;0.50;;;;;;;8.04;75.54;100426.72;5028757;28;20050;-64
2021/01/02 09:05:55;;;;;;;3.65;1.45;;;;;;;8.04;75.19;100422.38;5028989;28;20045;-62
2021/01/02 09:08:21;;;;;;;3.10;0.63;;;;;;;8.04;75.03;100432.81;5028284;28;20045;-63
2021/01/02 09:10:56;;;;;;;2.50;0.60;;;;;;;8.04;74.93;100451.09;5028602;28;20057;-63
2021/01/02 09:13:24;;;;;;;1.00;0.55;;;;;;;8.04;74.81;100456.34;5028794;28;20045;-62
2021/01/02 09:15:54;;;;;;;1.95;0.70;;;;;;;8.06;74.97;100451.84;5028527;28;20048;-62
2021/01/02 09:18:30;;;;;;;3.70;1.05;;;;;;;8.08;74.79;100462.25;5028687;28;20045;-62
2021/01/02 09:21:05;;;;;;;5.70;1.75;;;;;;;8.09;74.62;100449.09;5003520;28;20054;-62
2021/01/02 09:23:33;;;;;;;1.95;0.80;;;;;;;8.10;74.63;100456.03;5028367;28;20125;-62
2021/01/02 09:26:01;;;;;;;1.70;1.10;;;;;;;8.11;74.57;100459.47;5028888;28;20107;-62
2021/01/02 09:28:27;;;;;;;2.22;0.80;;;;;;;8.11;74.69;100475.16;5028695;28;20478;-62
2021/01/02 09:30:53;;;;;;;2.65;1.10;;;;;;;8.11;74.77;100470.78;5028526;28;20068;-64
2021/01/02 09:33:20;;;;;;;1.20;0.80;;;;;;;8.12;74.95;100469.00;5028372;28;20042;-64
2021/01/02 09:35:47;;;;;;;2.85;1.05;;;;;;;8.15;75.03;100458.38;5028425;28;20544;-63
2021/01/02 09:38:13;;;;;;;2.00;0.80;;;;;;;8.17;75.13;100462.59;5028065;28;20038;-63
2021/01/02 09:40:42;;;;;;;1.58;1.05;;;;;;;8.21;75.17;100452.00;5028410;28;20049;-63
2021/01/02 09:43:17;;;;;;;3.95;1.90;;;;;;;8.23;75.29;100455.38;5022300;28;20450;-63
2021/01/02 09:46:20;;;;;;;2.25;0.80;;;;;;;8.26;75.53;100440.38;5048053;28;20388;-65
2021/01/02 09:48:49;;;;;;;2.03;1.00;;;;;;;8.25;75.56;100441.34;5050676;28;20107;-65
2021/01/02 09:51:16;;;;;;;2.55;1.30;;;;;;;8.26;75.65;100444.78;5050214;28;20041;-64
2021/01/02 09:53:42;;;;;;;3.38;1.00;;;;;;;8.25;75.74;100432.63;5050794;28;20400;-65
2021/01/02 09:56:09;;;;;;;1.95;1.08;;;;;;;8.24;75.59;100425.69;5045543;28;20099;-68
2021/01/02 09:58:35;;;;;;;1.90;1.05;;;;;;;8.21;75.75;100426.72;5045585;28;20131;-64
2021/01/02 10:01:03;;;;;;;2.03;0.85;;;;;;;8.20;75.74;100417.16;5045418;28;20487;-69
2021/01/02 10:03:29;;;;;;;1.80;1.00;;;;;;;8.20;75.74;100421.56;5044763;28;20049;-71
2021/01/02 10:05:56;;;;;;;2.55;0.90;;;;;;;8.19;75.89;100418.13;5044414;28;20056;-63
2021/01/02 10:08:23;;;;;;;1.25;0.70;;;;;;;8.20;75.96;100421.56;5045021;28;20095;-66
2021/01/02 10:10:51;;;;;;;1.30;0.82;;;;;;;8.20;76.16;100411.94;5042353;28;20490;-65
2021/01/02 10:13:18;;;;;;;3.35;1.60;;;;;;;8.20;76.04;100403.28;5044854;28;20052;-65
2021/01/02 10:15:44;;;;;;;4.32;2.20;;;;;;;8.20;76.00;100404.09;5045006;28;20045;-71
2021/01/02 10:18:10;;;;;;;2.70;1.50;;;;;;;8.20;75.99;100403.28;5044864;28;20045;-70
2021/01/02 10:20:36;;;;;;;3.17;1.40;;;;;;;8.20;76.04;100382.34;5044574;28;20037;-63
2021/01/02 10:23:02;;;;;;;1.90;1.23;;;;;;;8.18;76.26;100383.28;5044582;28;20517;-65
2021/01/02 10:25:28;;;;;;;3.20;1.55;;;;;;;8.18;76.26;100383.28;5044865;28;20060;-67
2021/01/02 10:27:55;;;;;;;1.85;1.17;;;;;;;8.18;76.29;100378.06;5044509;28;20156;-68
2021/01/02 10:30:22;;;;;;;2.42;1.00;;;;;;;8.18;76.32;100372.81;5041708;28;20488;-66
2021/01/02 10:32:48;;;;;;;2.95;1.20;;;;;;;8.18;76.49;100375.44;5044251;28;20130;-63
2021/01/02 10:35:16;;;;;;;2.33;1.50;;;;;;;8.18;76.62;100370.22;5044208;28;20057;-67
2021/01/02 10:37:46;;;;;;;3.17;1.60;;;;;;;8.19;76.74;100363.22;5044149;28;20400;-66
2021/01/02 10:40:13;;;;;;;2.75;1.52;;;;;;;8.20;76.74;100364.06;5044252;28;20056;-70
2021/01/02 10:42:40;;;;;;;3.65;1.17;;;;;;;8.21;76.77;100366.59;5044194;28;20120;-68
2021/01/02 10:45:10;;;;;;;3.63;1.70;;;;;;;8.21;76.76;100360.53;5044353;28;20057;-68
2021/01/02 10:47:36;;;;;;;3.17;2.05;;;;;;;8.22;76.59;100364.84;5043979;28;20048;-63
2021/01/02 10:50:03;;;;;;;2.72;1.60;;;;;;;8.21;76.53;100361.38;5044015;28;20531;-68
2021/01/02 10:52:30;;;;;;;3.15;1.20;;;;;;;8.23;76.49;100358.66;5044045;28;20041;-67
2021/01/02 10:54:57;;;;;;;4.32;1.92;;;;;;;8.23;76.42;100358.66;5043634;28;20045;-65
2021/01/02 10:57:26;;;;;;;2.80;1.60;;;;;;;8.22;76.67;100349.97;5031720;28;20474;-68
2021/01/02 10:59:52;;;;;;;4.43;2.78;;;;;;;8.22;76.60;100346.53;5030642;28;20053;-63
2021/01/02 11:02:19;;;;;;;3.88;2.33;;;;;;;8.20;76.57;100349.22;5031325;28;20041;-68
2021/01/02 11:04:45;;;;;;;3.53;1.60;;;;;;;8.21;76.60;100350.91;5019172;28;20045;-67
2021/01/02 11:07:13;;;;;;;4.88;2.08;;;;;;;8.18;76.48;100341.47;5030080;28;20049;-70
2021/01/02 11:09:39;;;;;;;3.10;1.85;;;;;;;8.18;76.77;100340.63;5029621;28;20505;-68
2021/01/02 11:12:06;;;;;;;4.32;2.10;;;;;;;8.16;76.71;100337.25;5029913;28;20056;-67
2021/01/02 11:14:32;;;;;;;3.75;2.00;;;;;;;8.14;76.61;100341.72;5030215;28;20490;-65
2021/01/02 11:16:58;;;;;;;4.85;2.53;;;;;;;8.11;76.72;100344.47;5029426;28;20952;-63
2021/01/02 11:19:28;;;;;;;2.40;1.33;;;;;;;8.08;76.88;100345.50;5029977;28;20517;-69
2021/01/02 11:22:00;;;;;;;2.08;1.13;;;;;;;8.06;76.78;100323.81;5030664;28;20091;-64
2021/01/02 11:24:29;;;;;;;4.07;1.45;;;;;;;8.03;77.05;100325.75;5029576;28;20046;-63
2021/01/02 11:27:02;;;;;;;2.40;1.30;;;;;;;8.01;77.25;100317.97;5030511;28;20050;-66
2021/01/02 11:29:33;;;;;;;2.00;0.75;;;;;;;7.99;77.26;100314.63;5029476;28;20045;-68
2021/01/02 11:32:04;;;;;;;1.92;1.20;;;;;;;7.97;77.28;100322.56;5029404;28;20049;-69
2021/01/02 11:34:30;;;;;;;2.42;1.20;;;;;;;7.95;77.37;100318.34;5029330;28;20045;-70
2021/01/02 11:36:58;;;;;;;0.90;0.70;;;;;;;7.92;77.65;100315.88;5030009;28;20091;-64
2021/01/02 11:39:25;;;;;;;1.10;0.80;;;;;;;7.91;77.51;100301.97;5029215;28;20042;-66
2021/01/02 11:41:53;;;;;;;1.70;0.80;;;;;;;7.90;77.52;100295.06;5029459;28;20103;-68
2021/01/02 11:44:22;;;;;;;2.63;1.65;;;;;;;7.89;77.81;100282.91;5029380;28;20128;-69
2021/01/02 11:46:50;;;;;;;2.85;1.73;;;;;;;7.90;77.76;100257.63;5029789;28;20088;-65
2021/01/02 11:49:23;;;;;;;2.22;0.98;;;;;;;7.90;77.91;100229.75;5029856;28;20041;-70
2021/01/02 11:51:51;;;;;;;3.03;1.00;;;;;;;7.91;77.97;100244.50;5029656;28;20418;-62